createdAt,value
2022-11-15T00:00:57.192Z,13.65
2022-11-15T00:03:28.623Z,14.95
2022-11-15T00:05:55.524Z,12.90
2022-11-15T00:08:22.455Z,9.38
2022-11-15T00:10:59.681Z,11.82
2022-11-15T00:13:26.782Z,11.27
2022-11-15T00:15:53.448Z,11.45
2022-11-15T00:18:20.187Z,11.32
2022-11-15T00:20:46.895Z,13.63
2022-11-15T00:23:13.438Z,11.75
2022-11-15T00:25:40.005Z,11.13
2022-11-15T00:28:06.598Z,11.23
2022-11-15T00:30:33.663Z,11.63
2022-11-15T00:33:07.481Z,9.98
2022-11-15T00:35:34.984Z,13.82
2022-11-15T00:38:02.806Z,11.68
2022-11-15T00:40:29.634Z,12.35
2022-11-15T00:42:56.257Z,12.02
2022-11-15T00:45:23.082Z,10.48
2022-11-15T00:47:49.727Z,13.60
2022-11-15T00:50:16.684Z,10.20
2022-11-15T00:52:43.626Z,13.35
2022-11-15T00:55:16.047Z,11.38
2022-11-15T00:57:42.856Z,11.18
2022-11-15T01:00:10.134Z,9.52
2022-11-15T01:02:36.736Z,11.65
2022-11-15T01:05:03.795Z,13.23
2022-11-15T01:07:30.490Z,12.65
2022-11-15T01:09:57.126Z,12.05
2022-11-15T01:12:23.702Z,13.40
2022-11-15T01:14:51.078Z,12.40
2022-11-15T01:17:17.794Z,14.05
2022-11-15T01:19:44.349Z,11.05
2022-11-15T01:22:10.901Z,11.43
2022-11-15T01:24:37.559Z,9.90
2022-11-15T01:27:04.223Z,11.65
2022-11-15T01:29:30.788Z,10.88
2022-11-15T01:31:57.379Z,11.98
2022-11-15T01:34:23.952Z,11.00
2022-11-15T01:36:50.561Z,13.50
2022-11-15T01:39:17.683Z,11.75
2022-11-15T01:41:44.487Z,13.32
2022-11-15T01:44:29.789Z,13.98
2022-11-15T01:46:56.542Z,11.82
2022-11-15T01:49:24.813Z,13.85
2022-11-15T01:51:51.951Z,10.52
2022-11-15T01:54:22.053Z,11.93
2022-11-15T01:57:03.679Z,9.50
2022-11-15T01:59:30.736Z,11.32
2022-11-15T02:01:57.708Z,8.90
2022-11-15T02:04:30.172Z,10.15
2022-11-15T02:06:56.880Z,10.77
2022-11-15T02:09:23.511Z,9.32
2022-11-15T02:11:52.726Z,10.32
2022-11-15T02:14:21.081Z,12.05
2022-11-15T02:17:10.766Z,11.25
2022-11-15T02:19:58.512Z,12.27
2022-11-15T02:22:49.601Z,11.90
2022-11-15T02:25:40.226Z,13.38
2022-11-15T02:28:44.456Z,10.77
2022-11-15T02:31:30.875Z,12.55
2022-11-15T02:34:11.266Z,11.15
2022-11-15T02:36:52.954Z,10.90
2022-11-15T02:39:36.567Z,12.15
2022-11-15T02:42:33.800Z,10.50
2022-11-15T02:45:04.430Z,11.50
2022-11-15T02:47:35.932Z,12.85
2022-11-15T02:50:09.829Z,11.65
2022-11-15T02:52:36.457Z,10.52
2022-11-15T02:55:03.594Z,11.40
2022-11-15T02:58:19.913Z,9.25
2022-11-15T03:01:07.910Z,9.90
2022-11-15T03:03:46.119Z,12.05
2022-11-15T03:06:27.814Z,11.85
2022-11-15T03:09:24.716Z,8.23
2022-11-15T03:12:04.515Z,10.80
2022-11-15T03:14:36.978Z,8.88
2022-11-15T03:17:27.008Z,9.82
2022-11-15T03:20:02.056Z,10.80
2022-11-15T03:22:34.218Z,9.85
2022-11-15T03:25:05.759Z,8.43
2022-11-15T03:27:38.806Z,10.52
2022-11-15T03:30:08.095Z,7.10
2022-11-15T03:32:42.772Z,9.88
2022-11-15T03:35:17.940Z,9.45
2022-11-15T03:37:51.400Z,9.95
2022-11-15T03:40:21.039Z,11.48
2022-11-15T03:42:56.193Z,11.30
2022-11-15T03:45:36.587Z,8.13
2022-11-15T03:48:11.315Z,10.40
2022-11-15T03:50:38.472Z,10.90
2022-11-15T03:53:05.355Z,12.73
2022-11-15T03:55:33.157Z,10.90
2022-11-15T03:58:12.386Z,8.88
2022-11-15T04:00:38.971Z,9.40
2022-11-15T04:03:05.583Z,9.27
2022-11-15T04:05:32.136Z,8.98
2022-11-15T04:07:58.702Z,14.02
2022-11-15T04:10:25.544Z,9.57
2022-11-15T04:12:52.320Z,10.85
2022-11-15T04:15:22.728Z,8.63
2022-11-15T04:17:57.220Z,8.43
2022-11-15T04:20:48.502Z,8.80
2022-11-15T04:23:36.891Z,11.32
2022-11-15T04:26:06.636Z,10.23
2022-11-15T04:28:33.367Z,11.20
2022-11-15T04:31:00.330Z,11.57
2022-11-15T04:33:26.936Z,11.55
2022-11-15T04:36:12.086Z,10.85
2022-11-15T04:38:38.667Z,8.95
2022-11-15T04:41:05.338Z,13.02
2022-11-15T04:43:32.450Z,11.05
2022-11-15T04:45:59.248Z,12.10
2022-11-15T04:48:25.897Z,9.43
2022-11-15T04:50:52.599Z,11.52
2022-11-15T04:53:19.150Z,9.77
2022-11-15T04:55:46.817Z,10.63
2022-11-15T04:58:13.468Z,11.27
2022-11-15T05:00:40.872Z,10.18
2022-11-15T05:03:25.934Z,9.93
2022-11-15T05:05:52.496Z,9.32
2022-11-15T05:08:19.066Z,8.82
2022-11-15T05:10:45.957Z,9.90
2022-11-15T05:13:12.549Z,10.65
2022-11-15T05:15:39.146Z,8.65
2022-11-15T05:18:05.761Z,12.90
2022-11-15T05:20:32.327Z,9.48
2022-11-15T05:22:58.937Z,11.07
2022-11-15T05:25:26.026Z,10.48
2022-11-15T05:27:52.753Z,10.13
2022-11-15T05:30:19.429Z,14.15
2022-11-15T05:32:46.184Z,10.57
2022-11-15T05:35:39.564Z,11.13
2022-11-15T05:38:06.263Z,9.75
2022-11-15T05:40:34.157Z,10.23
2022-11-15T05:43:03.343Z,9.10
2022-11-15T05:45:30.374Z,11.88
2022-11-15T05:48:00.656Z,9.57
2022-11-15T05:50:28.176Z,13.68
2022-11-15T05:52:58.633Z,9.90
2022-11-15T05:55:28.949Z,9.45
2022-11-15T05:57:55.556Z,8.00
2022-11-15T06:00:22.294Z,9.95
2022-11-15T06:02:48.871Z,8.25
2022-11-15T06:05:15.486Z,8.18
2022-11-15T06:07:42.035Z,9.20
2022-11-15T06:10:09.306Z,6.45
2022-11-15T06:12:35.845Z,5.90
2022-11-15T06:15:02.416Z,8.38
2022-11-15T06:17:29.872Z,7.38
2022-11-15T06:19:56.411Z,7.13
2022-11-15T06:22:22.966Z,7.30
2022-11-15T06:24:49.714Z,7.78
2022-11-15T06:27:16.456Z,8.27
2022-11-15T06:29:43.029Z,6.78
2022-11-15T06:32:09.683Z,6.95
2022-11-15T06:34:36.880Z,8.00
2022-11-15T06:37:03.928Z,7.57
2022-11-15T06:39:30.517Z,7.10
2022-11-15T06:41:57.058Z,8.38
2022-11-15T06:44:23.642Z,7.45
2022-11-15T06:46:50.283Z,8.85
2022-11-15T06:49:17.760Z,5.45
2022-11-15T06:51:44.359Z,8.52
2022-11-15T06:54:10.941Z,7.20
2022-11-15T06:56:37.531Z,6.38
2022-11-15T06:59:04.118Z,5.82
2022-11-15T07:01:30.782Z,5.43
2022-11-15T07:03:57.405Z,6.47
2022-11-15T07:06:23.959Z,5.50
2022-11-15T07:08:50.484Z,5.07
2022-11-15T07:11:17.081Z,5.15
2022-11-15T07:13:43.650Z,4.18
2022-11-15T07:16:11.415Z,3.45
2022-11-15T07:18:39.859Z,4.97
2022-11-15T07:21:11.129Z,3.72
2022-11-15T07:23:39.020Z,9.05
2022-11-15T07:26:06.521Z,4.43
2022-11-15T07:28:33.426Z,3.80
2022-11-15T07:31:04.005Z,5.10
2022-11-15T07:33:30.980Z,3.45
2022-11-15T07:36:02.440Z,3.42
2022-11-15T07:38:29.968Z,2.88
2022-11-15T07:41:01.497Z,6.28
2022-11-15T07:43:29.142Z,4.28
2022-11-15T07:45:59.307Z,8.57
2022-11-15T07:48:35.634Z,5.63
2022-11-15T07:51:15.885Z,3.50
2022-11-15T07:53:44.182Z,8.27
2022-11-15T07:56:11.256Z,2.40
2022-11-15T07:58:37.846Z,4.68
2022-11-15T08:01:08.974Z,5.03
2022-11-15T08:03:36.218Z,4.28
2022-11-15T08:06:02.914Z,4.57
2022-11-15T08:08:29.660Z,4.38
2022-11-15T08:10:58.777Z,4.30
2022-11-15T08:13:25.442Z,4.32
2022-11-15T08:15:57.375Z,3.80
2022-11-15T08:18:24.394Z,5.65
2022-11-15T08:20:50.987Z,6.40
2022-11-15T08:23:17.575Z,4.57
2022-11-15T08:25:44.475Z,5.57
2022-11-15T08:28:11.639Z,5.35
2022-11-15T08:30:42.447Z,5.63
2022-11-15T08:33:12.924Z,4.32
2022-11-15T08:35:40.737Z,4.85
2022-11-15T08:38:07.480Z,5.88
2022-11-15T08:40:34.065Z,6.18
2022-11-15T08:43:03.273Z,4.65
2022-11-15T08:45:30.838Z,5.88
2022-11-15T08:47:57.724Z,7.75
2022-11-15T08:50:24.377Z,3.72
2022-11-15T08:52:50.958Z,3.20
2022-11-15T08:55:17.860Z,4.38
2022-11-15T08:57:45.107Z,4.07
2022-11-15T09:00:13.242Z,4.90
2022-11-15T09:02:40.900Z,4.85
2022-11-15T09:05:08.082Z,5.30
2022-11-15T09:07:34.924Z,5.35
2022-11-15T09:10:01.735Z,6.15
2022-11-15T09:12:28.619Z,4.97
2022-11-15T09:14:55.582Z,4.85
2022-11-15T09:17:24.854Z,6.25
2022-11-15T09:19:51.890Z,4.45
2022-11-15T09:22:18.789Z,6.65
2022-11-15T09:24:45.506Z,8.07
2022-11-15T09:27:12.641Z,4.78
2022-11-15T09:29:39.221Z,5.25
2022-11-15T09:32:06.102Z,4.43
2022-11-15T09:34:32.839Z,2.60
2022-11-15T09:36:59.414Z,4.63
2022-11-15T09:39:26.046Z,5.38
2022-11-15T09:42:33.900Z,4.38
2022-11-15T09:45:21.732Z,3.95
2022-11-15T09:48:19.623Z,4.63
2022-11-15T09:50:52.504Z,4.25
2022-11-15T09:54:09.152Z,4.10
2022-11-15T09:56:23.589Z,5.18
2022-11-15T09:59:08.712Z,3.45
2022-11-15T10:01:57.737Z,6.32
2022-11-15T10:04:26.163Z,4.80
2022-11-15T10:07:04.213Z,4.38
2022-11-15T10:09:40.849Z,4.75
2022-11-15T10:12:09.459Z,4.93
2022-11-15T10:14:36.708Z,4.55
2022-11-15T10:17:21.747Z,7.13
2022-11-15T10:20:21.725Z,4.18
2022-11-15T10:22:57.394Z,5.55
2022-11-15T10:25:25.750Z,6.00
2022-11-15T10:28:28.711Z,6.15
2022-11-15T10:30:59.830Z,4.47
2022-11-15T10:33:36.880Z,6.57
2022-11-15T10:36:09.759Z,4.95
2022-11-15T10:38:51.565Z,5.70
2022-11-15T10:41:22.607Z,5.60
2022-11-15T10:44:07.606Z,4.85
2022-11-15T10:46:51.391Z,4.82
2022-11-15T10:49:25.119Z,5.63
2022-11-15T10:51:59.894Z,7.03
2022-11-15T10:54:40.577Z,5.18
2022-11-15T10:57:18.292Z,4.55
2022-11-15T11:00:07.232Z,4.75
2022-11-15T11:02:40.269Z,3.97
2022-11-15T11:05:41.648Z,4.18
2022-11-15T11:08:12.462Z,4.05
2022-11-15T11:11:01.318Z,4.55
2022-11-15T11:13:31.901Z,5.07
2022-11-15T11:16:17.567Z,4.53
2022-11-15T11:19:07.251Z,5.18
2022-11-15T11:21:57.186Z,3.83
2022-11-15T11:24:34.168Z,7.30
2022-11-15T11:27:15.810Z,5.75
2022-11-15T11:30:00.572Z,5.70
2022-11-15T11:32:55.028Z,5.68
2022-11-15T11:35:40.309Z,3.42
2022-11-15T11:38:31.510Z,4.88
2022-11-15T11:41:13.211Z,4.78
2022-11-15T11:43:39.797Z,4.35
2022-11-15T11:46:18.047Z,3.08
2022-11-15T11:48:48.345Z,6.13
2022-11-15T11:51:25.477Z,4.93
2022-11-15T11:54:25.874Z,4.55
2022-11-15T11:56:55.248Z,6.13
2022-11-15T11:59:44.318Z,7.85
2022-11-15T12:02:20.857Z,4.68
2022-11-15T12:04:54.017Z,5.43
2022-11-15T12:07:28.691Z,5.70
2022-11-15T12:10:09.061Z,4.13
2022-11-15T12:12:54.593Z,3.78
2022-11-15T12:15:28.371Z,4.20
2022-11-15T12:17:57.839Z,5.50
2022-11-15T12:20:33.872Z,4.65
2022-11-15T12:23:04.871Z,4.40
2022-11-15T12:25:53.096Z,4.10
2022-11-15T12:28:52.842Z,5.50
2022-11-15T12:31:52.793Z,4.10
2022-11-15T12:34:22.171Z,5.10
2022-11-15T12:36:50.909Z,4.68
2022-11-15T12:39:18.722Z,4.70
2022-11-15T12:42:06.780Z,6.70
2022-11-15T12:44:33.777Z,7.68
2022-11-15T12:47:03.421Z,3.40
2022-11-15T12:49:30.811Z,3.78
2022-11-15T12:52:00.159Z,4.13
2022-11-15T12:54:28.151Z,3.88
2022-11-15T12:57:04.090Z,5.05
2022-11-15T12:59:54.036Z,4.95
2022-11-15T13:02:25.520Z,7.38
2022-11-15T13:04:54.322Z,4.65
2022-11-15T13:07:36.117Z,6.18
2022-11-15T13:10:33.183Z,4.05
2022-11-15T13:13:04.484Z,2.88
2022-11-15T13:15:42.299Z,4.22
2022-11-15T13:18:39.904Z,4.38
2022-11-15T13:21:40.046Z,4.00
2022-11-15T13:24:13.410Z,3.83
2022-11-15T13:26:41.104Z,4.25
2022-11-15T13:29:19.762Z,4.43
2022-11-15T13:31:47.273Z,5.13
2022-11-15T13:34:50.583Z,7.28
2022-11-15T13:37:35.302Z,3.92
2022-11-15T13:40:21.175Z,3.50
2022-11-15T13:42:47.732Z,5.63
2022-11-15T13:45:17.908Z,5.38
2022-11-15T13:47:44.632Z,5.00
2022-11-15T13:50:13.552Z,4.40
2022-11-15T13:52:44.138Z,4.95
2022-11-15T13:55:15.486Z,4.90
2022-11-15T13:57:56.424Z,4.28
2022-11-15T14:00:27.995Z,3.90
2022-11-15T14:02:56.162Z,4.40
2022-11-15T14:05:25.437Z,5.95
2022-11-15T14:08:01.468Z,4.65
2022-11-15T14:10:38.346Z,5.95
2022-11-15T14:13:11.198Z,6.70
2022-11-15T14:15:39.366Z,6.88
2022-11-15T14:18:07.057Z,5.05
2022-11-15T14:20:39.929Z,4.13
2022-11-15T14:23:36.002Z,6.78
2022-11-15T14:26:05.239Z,4.60
2022-11-15T14:28:38.943Z,5.60
2022-11-15T14:31:12.727Z,3.40
2022-11-15T14:33:40.162Z,4.60
2022-11-15T14:36:16.713Z,6.10
2022-11-15T14:38:46.678Z,4.07
2022-11-15T14:41:25.459Z,3.65
2022-11-15T14:43:52.875Z,5.47
2022-11-15T14:46:19.900Z,7.00
2022-11-15T14:48:46.804Z,5.45
2022-11-15T14:51:19.657Z,4.38
2022-11-15T14:53:47.582Z,4.07
2022-11-15T14:56:14.533Z,5.13
2022-11-15T14:58:41.198Z,5.15
2022-11-15T15:01:24.188Z,4.28
2022-11-15T15:03:52.963Z,3.60
2022-11-15T15:06:19.860Z,5.75
2022-11-15T15:08:48.943Z,3.15
2022-11-15T15:11:30.715Z,8.02
2022-11-15T15:13:59.205Z,3.15
2022-11-15T15:16:25.930Z,6.40
2022-11-15T15:18:52.885Z,4.65
2022-11-15T15:21:25.110Z,4.25
2022-11-15T15:23:52.321Z,6.05
2022-11-15T15:26:18.885Z,3.33
2022-11-15T15:28:45.511Z,8.38
2022-11-15T15:31:12.223Z,5.18
2022-11-15T15:33:39.024Z,4.22
2022-11-15T15:36:06.014Z,4.13
2022-11-15T15:38:32.842Z,4.28
2022-11-15T15:41:02.783Z,5.95
2022-11-15T15:43:29.352Z,4.03
2022-11-15T15:45:56.002Z,5.22
2022-11-15T15:48:22.641Z,5.20
2022-11-15T15:50:50.138Z,4.97
2022-11-15T15:53:18.160Z,3.58
2022-11-15T15:55:44.796Z,4.28
2022-11-15T15:58:11.393Z,7.10
2022-11-15T16:00:38.158Z,4.18
2022-11-15T16:03:04.902Z,4.78
2022-11-15T16:05:31.506Z,5.25
2022-11-15T16:07:58.216Z,5.32
2022-11-15T16:10:30.696Z,4.25
2022-11-15T16:12:58.362Z,3.67
2022-11-15T16:15:27.555Z,4.18
2022-11-15T16:17:56.631Z,4.82
2022-11-15T16:20:45.691Z,4.32
2022-11-15T16:23:17.940Z,3.42
2022-11-15T16:25:52.065Z,4.97
2022-11-15T16:28:23.355Z,6.28
2022-11-15T16:30:59.591Z,5.32
2022-11-15T16:33:26.159Z,5.65
2022-11-15T16:35:52.726Z,3.15
2022-11-15T16:38:19.454Z,4.47
2022-11-15T16:40:46.123Z,4.85
2022-11-15T16:43:12.714Z,3.65
2022-11-15T16:45:39.541Z,5.25
2022-11-15T16:48:06.333Z,3.53
2022-11-15T16:50:41.150Z,4.03
2022-11-15T16:53:08.064Z,7.28
2022-11-15T16:55:34.827Z,4.18
2022-11-15T16:58:02.306Z,5.30
2022-11-15T17:00:29.158Z,4.95
2022-11-15T17:02:56.118Z,5.50
2022-11-15T17:05:24.546Z,4.47
2022-11-15T17:07:54.107Z,6.85
2022-11-15T17:10:22.730Z,4.60
2022-11-15T17:12:50.689Z,6.80
2022-11-15T17:15:17.508Z,5.97
2022-11-15T17:17:44.652Z,4.82
2022-11-15T17:20:17.090Z,4.00
2022-11-15T17:22:44.174Z,6.18
2022-11-15T17:25:11.012Z,3.83
2022-11-15T17:27:37.599Z,6.05
2022-11-15T17:30:05.225Z,4.18
2022-11-15T17:32:31.801Z,5.32
2022-11-15T17:34:58.342Z,4.97
2022-11-15T17:37:24.898Z,5.50
2022-11-15T17:39:51.528Z,3.80
2022-11-15T17:42:18.105Z,6.20
2022-11-15T17:44:44.719Z,4.15
2022-11-15T17:47:11.281Z,5.15
2022-11-15T17:49:40.615Z,4.43
2022-11-15T17:52:07.737Z,4.72
2022-11-15T17:54:34.454Z,6.43
2022-11-15T17:57:01.017Z,5.28
2022-11-15T17:59:27.579Z,5.43
2022-11-15T18:01:54.257Z,4.93
2022-11-15T18:04:20.998Z,4.40
2022-11-15T18:06:47.802Z,3.92
2022-11-15T18:09:14.440Z,2.70
2022-11-15T18:11:43.067Z,6.03
2022-11-15T18:14:14.404Z,5.35
2022-11-15T18:16:41.697Z,6.40
2022-11-15T18:19:13.002Z,4.18
2022-11-15T18:21:56.579Z,4.85
2022-11-15T18:24:35.228Z,4.80
2022-11-15T18:27:03.273Z,2.92
2022-11-15T18:29:29.952Z,7.85
2022-11-15T18:31:57.402Z,6.70
2022-11-15T18:34:25.600Z,6.47
2022-11-15T18:36:53.437Z,4.88
2022-11-15T18:39:20.354Z,7.00
2022-11-15T18:41:47.293Z,5.18
2022-11-15T18:44:15.237Z,6.05
2022-11-15T18:46:42.513Z,5.82
2022-11-15T18:49:09.934Z,3.95
2022-11-15T18:51:41.634Z,4.22
2022-11-15T18:54:10.818Z,6.22
2022-11-15T18:56:38.020Z,6.75
2022-11-15T18:59:05.257Z,5.30
2022-11-15T19:01:38.309Z,9.50
2022-11-15T19:04:10.594Z,4.10
2022-11-15T19:06:45.099Z,6.30
2022-11-15T19:09:15.208Z,4.40
2022-11-15T19:11:42.682Z,6.78
2022-11-15T19:14:11.405Z,9.10
2022-11-15T19:16:44.674Z,5.78
2022-11-15T19:19:17.252Z,8.50
2022-11-15T19:21:44.454Z,4.53
2022-11-15T19:24:11.307Z,6.70
2022-11-15T19:26:38.314Z,6.65
2022-11-15T19:29:06.894Z,7.53
2022-11-15T19:31:33.800Z,5.30
2022-11-15T19:34:02.997Z,6.18
2022-11-15T19:36:34.301Z,5.45
2022-11-15T19:39:09.520Z,4.70
2022-11-15T19:41:38.386Z,7.53
2022-11-15T19:44:06.182Z,7.68
2022-11-15T19:46:32.930Z,5.82
2022-11-15T19:48:59.656Z,5.45
2022-11-15T19:51:29.201Z,8.65
2022-11-15T19:53:57.918Z,3.22
2022-11-15T19:56:24.793Z,4.70
2022-11-15T19:58:56.343Z,5.25
2022-11-15T20:01:28.180Z,6.35
2022-11-15T20:03:57.147Z,5.70
2022-11-15T20:06:27.075Z,3.28
2022-11-15T20:08:53.824Z,6.20
2022-11-15T20:11:20.663Z,6.50
2022-11-15T20:13:47.268Z,4.20
2022-11-15T20:16:19.704Z,5.70
2022-11-15T20:18:47.425Z,4.55
2022-11-15T20:21:14.226Z,3.03
2022-11-15T20:23:41.407Z,5.25
2022-11-15T20:26:09.457Z,4.93
2022-11-15T20:28:37.531Z,5.78
2022-11-15T20:31:05.130Z,6.45
2022-11-15T20:33:31.975Z,6.20
2022-11-15T20:36:02.329Z,3.85
2022-11-15T20:38:28.879Z,5.18
2022-11-15T20:40:59.997Z,4.90
2022-11-15T20:43:27.268Z,6.03
2022-11-15T20:45:54.046Z,4.13
2022-11-15T20:48:20.868Z,3.83
2022-11-15T20:50:47.858Z,6.45
2022-11-15T20:53:17.996Z,4.03
2022-11-15T20:55:50.864Z,4.82
2022-11-15T20:58:18.057Z,2.67
2022-11-15T21:00:45.979Z,3.30
2022-11-15T21:03:14.331Z,5.32
2022-11-15T21:05:42.936Z,5.75
2022-11-15T21:08:10.722Z,6.57
2022-11-15T21:10:56.435Z,9.15
2022-11-15T21:13:23.043Z,10.15
2022-11-15T21:15:49.846Z,5.95
2022-11-15T21:18:16.536Z,5.32
2022-11-15T21:20:43.253Z,5.90
2022-11-15T21:23:10.121Z,7.47
2022-11-15T21:25:36.759Z,7.13
2022-11-15T21:28:03.470Z,8.93
2022-11-15T21:30:30.334Z,9.35
2022-11-15T21:32:57.026Z,4.80
2022-11-15T21:35:23.763Z,8.35
2022-11-15T21:37:56.182Z,6.53
2022-11-15T21:40:24.259Z,7.50
2022-11-15T21:42:50.907Z,10.95
2022-11-15T21:45:17.531Z,7.43
2022-11-15T21:47:46.491Z,4.97
2022-11-15T21:50:13.764Z,5.47
2022-11-15T21:52:40.684Z,5.35
2022-11-15T21:55:08.371Z,6.97
2022-11-15T21:57:35.004Z,3.33
2022-11-15T22:00:20.676Z,5.82
2022-11-15T22:02:47.278Z,7.13
2022-11-15T22:05:13.842Z,3.80
2022-11-15T22:07:40.457Z,4.15
2022-11-15T22:10:07.332Z,7.28
2022-11-15T22:12:33.880Z,8.70
2022-11-15T22:15:00.473Z,3.95
2022-11-15T22:17:47.055Z,5.50
2022-11-15T22:20:37.696Z,3.38
2022-11-15T22:23:02.067Z,6.65
2022-11-15T22:25:28.915Z,6.40
2022-11-15T22:27:55.491Z,6.47
2022-11-15T22:30:22.683Z,5.13
2022-11-15T22:32:49.258Z,6.60
2022-11-15T22:35:16.473Z,6.07
2022-11-15T22:37:43.112Z,4.50
2022-11-15T22:40:10.258Z,8.13
2022-11-15T22:42:38.936Z,5.90
2022-11-15T22:45:06.085Z,6.30
2022-11-15T22:47:32.641Z,5.75
2022-11-15T22:49:59.269Z,6.95
2022-11-15T22:52:25.952Z,4.55
2022-11-15T22:54:52.580Z,4.15
2022-11-15T22:57:19.137Z,5.80
2022-11-15T22:59:45.877Z,5.07
2022-11-15T23:02:12.461Z,5.10
2022-11-15T23:04:39.111Z,5.07
2022-11-15T23:07:05.822Z,5.40
2022-11-15T23:09:32.433Z,3.72
2022-11-15T23:12:17.914Z,5.47
2022-11-15T23:14:44.573Z,5.32
2022-11-15T23:17:11.134Z,5.78
2022-11-15T23:19:37.758Z,5.53
2022-11-15T23:22:22.942Z,5.97
2022-11-15T23:24:49.631Z,5.38
2022-11-15T23:27:19.821Z,5.25
2022-11-15T23:30:19.390Z,5.57
2022-11-15T23:33:04.755Z,4.82
2022-11-15T23:35:31.432Z,5.97
2022-11-15T23:37:57.986Z,4.18
2022-11-15T23:40:24.574Z,8.43
2022-11-15T23:42:51.172Z,6.22
2022-11-15T23:45:18.354Z,6.22
2022-11-15T23:47:45.121Z,7.00
2022-11-15T23:50:11.721Z,5.53
2022-11-15T23:52:38.292Z,7.85
2022-11-15T23:55:05.814Z,8.73
2022-11-15T23:57:32.415Z,7.97
